createdAt,value
2022-12-22T00:02:22.477Z,24.88
2022-12-22T00:05:16.832Z,24.87
2022-12-22T00:08:04.399Z,24.85
2022-12-22T00:10:51.997Z,24.83
2022-12-22T00:13:39.656Z,24.81
2022-12-22T00:16:32.329Z,24.79
2022-12-22T00:19:21.511Z,24.77
2022-12-22T00:22:08.951Z,24.74
2022-12-22T00:24:57.011Z,24.71
2022-12-22T00:27:47.721Z,24.70
2022-12-22T00:30:36.437Z,24.68
2022-12-22T00:33:24.371Z,24.63
2022-12-22T00:36:11.941Z,24.65
2022-12-22T00:38:59.548Z,24.63
2022-12-22T00:41:47.124Z,24.62
2022-12-22T00:44:35.095Z,24.59
2022-12-22T00:47:29.363Z,24.58
2022-12-22T00:50:17.407Z,24.55
2022-12-22T00:53:05.081Z,24.54
2022-12-22T00:55:53.243Z,24.53
2022-12-22T00:58:40.998Z,24.51
2022-12-22T01:01:30.966Z,24.48
2022-12-22T01:04:18.715Z,24.45
2022-12-22T01:07:07.308Z,24.30
2022-12-22T01:09:56.517Z,24.42
2022-12-22T01:12:45.119Z,24.37
2022-12-22T01:15:37.104Z,24.38
2022-12-22T01:18:24.944Z,24.36
2022-12-22T01:21:12.693Z,24.35
2022-12-22T01:24:00.380Z,24.33
2022-12-22T01:26:48.652Z,24.30
2022-12-22T01:29:36.530Z,24.29
2022-12-22T01:32:24.901Z,24.28
2022-12-22T01:35:12.614Z,24.26
2022-12-22T01:38:00.677Z,24.24
2022-12-22T01:40:48.278Z,24.23
2022-12-22T01:43:40.937Z,24.20
2022-12-22T01:46:43.640Z,24.19
2022-12-22T01:49:37.191Z,24.18
2022-12-22T01:52:43.079Z,24.14
2022-12-22T01:55:32.905Z,24.13
2022-12-22T01:58:20.811Z,24.12
2022-12-22T02:01:08.622Z,24.08
2022-12-22T02:03:57.635Z,24.06
2022-12-22T02:07:00.045Z,24.04
2022-12-22T02:10:10.974Z,24.03
2022-12-22T02:13:40.197Z,24.01
2022-12-22T02:16:48.764Z,23.97
2022-12-22T02:19:53.866Z,23.98
2022-12-22T02:22:44.511Z,23.96
2022-12-22T02:25:41.515Z,23.94
2022-12-22T02:28:29.683Z,23.93
2022-12-22T02:31:18.575Z,23.89
2022-12-22T02:34:06.644Z,23.87
2022-12-22T02:37:03.286Z,23.77
2022-12-22T02:39:59.913Z,23.83
2022-12-22T02:43:08.468Z,23.85
2022-12-22T02:46:09.754Z,23.88
2022-12-22T02:49:16.813Z,23.91
2022-12-22T02:52:07.027Z,23.94
2022-12-22T02:54:55.894Z,23.97
2022-12-22T02:57:48.942Z,23.99
2022-12-22T03:00:37.378Z,24.02
2022-12-22T03:03:27.274Z,24.06
2022-12-22T03:06:15.448Z,24.08
2022-12-22T03:09:03.065Z,24.13
2022-12-22T03:11:51.015Z,24.16
2022-12-22T03:14:39.084Z,24.19
2022-12-22T03:17:27.364Z,24.23
2022-12-22T03:20:15.319Z,24.26
2022-12-22T03:23:03.276Z,24.29
2022-12-22T03:25:53.450Z,24.32
2022-12-22T03:28:25.155Z,24.36
2022-12-22T03:31:02.445Z,24.39
2022-12-22T03:33:33.263Z,24.42
2022-12-22T03:36:04.033Z,24.48
2022-12-22T03:38:34.993Z,24.53
2022-12-22T03:41:05.311Z,24.61
2022-12-22T03:43:53.304Z,24.68
2022-12-22T03:46:32.657Z,24.74
2022-12-22T03:49:12.846Z,24.82
2022-12-22T03:51:48.625Z,24.89
2022-12-22T03:54:23.395Z,24.93
2022-12-22T03:56:54.013Z,24.97
2022-12-22T03:59:24.706Z,24.99
2022-12-22T04:01:55.604Z,25.03
2022-12-22T04:04:27.584Z,25.05
2022-12-22T04:06:57.741Z,25.06
2022-12-22T04:09:28.458Z,25.04
2022-12-22T04:12:16.319Z,25.02
2022-12-22T04:14:46.961Z,25.01
2022-12-22T04:17:17.584Z,24.99
2022-12-22T04:19:48.013Z,24.96
2022-12-22T04:22:18.303Z,24.95
2022-12-22T04:24:48.834Z,24.94
2022-12-22T04:27:20.757Z,24.93
2022-12-22T04:29:51.058Z,24.91
2022-12-22T04:32:21.373Z,24.90
2022-12-22T04:34:51.836Z,24.89
2022-12-22T04:37:22.579Z,24.87
2022-12-22T04:39:53.301Z,24.86
2022-12-22T04:42:25.143Z,24.85
2022-12-22T04:44:55.639Z,24.83
2022-12-22T04:47:25.709Z,24.81
2022-12-22T04:49:57.361Z,24.80
2022-12-22T04:52:27.624Z,24.78
2022-12-22T04:54:57.818Z,24.75
2022-12-22T04:57:28.841Z,24.73
2022-12-22T05:00:03.670Z,24.71
2022-12-22T05:02:34.226Z,24.71
2022-12-22T05:05:04.675Z,24.70
2022-12-22T05:07:34.769Z,24.69
2022-12-22T05:10:06.664Z,24.67
2022-12-22T05:12:54.372Z,24.67
2022-12-22T05:15:29.905Z,24.66
2022-12-22T05:18:00.586Z,24.64
2022-12-22T05:20:30.771Z,24.63
2022-12-22T05:23:02.791Z,24.62
2022-12-22T05:25:35.612Z,24.61
2022-12-22T05:28:05.426Z,24.58
2022-12-22T05:30:35.977Z,24.57
2022-12-22T05:33:06.721Z,24.54
2022-12-22T05:35:36.994Z,24.52
2022-12-22T05:38:08.553Z,24.51
2022-12-22T05:40:39.169Z,24.48
2022-12-22T05:43:11.086Z,24.46
2022-12-22T05:45:41.799Z,24.45
2022-12-22T05:48:12.537Z,24.42
2022-12-22T05:50:43.099Z,24.40
2022-12-22T05:53:13.619Z,24.38
2022-12-22T05:55:44.176Z,24.36
2022-12-22T05:58:14.494Z,24.33
2022-12-22T06:00:44.747Z,24.32
2022-12-22T06:03:16.281Z,24.30
2022-12-22T06:05:46.904Z,24.27
2022-12-22T06:08:17.717Z,24.25
2022-12-22T06:10:48.597Z,24.23
2022-12-22T06:13:18.999Z,24.22
2022-12-22T06:15:50.237Z,24.18
2022-12-22T06:18:22.235Z,24.16
2022-12-22T06:20:54.518Z,24.15
2022-12-22T06:23:28.927Z,24.13
2022-12-22T06:26:05.691Z,24.09
2022-12-22T06:28:36.299Z,24.07
2022-12-22T06:31:10.496Z,24.05
2022-12-22T06:33:41.935Z,24.02
2022-12-22T06:36:12.872Z,24.01
2022-12-22T06:38:43.309Z,23.99
2022-12-22T06:41:14.412Z,23.95
2022-12-22T06:43:45.478Z,23.94
2022-12-22T06:46:20.426Z,23.94
2022-12-22T06:48:51.908Z,23.92
2022-12-22T06:51:22.885Z,23.88
2022-12-22T06:53:55.169Z,23.86
2022-12-22T06:56:27.348Z,23.84
2022-12-22T06:58:57.965Z,23.83
2022-12-22T07:01:31.403Z,23.78
2022-12-22T07:04:02.140Z,23.79
2022-12-22T07:06:32.606Z,23.74
2022-12-22T07:09:03.023Z,23.74
2022-12-22T07:11:33.494Z,23.71
2022-12-22T07:14:04.023Z,23.70
2022-12-22T07:16:34.518Z,23.67
2022-12-22T07:19:04.974Z,23.67
2022-12-22T07:21:35.026Z,23.64
2022-12-22T07:24:05.537Z,23.62
2022-12-22T07:26:36.481Z,23.60
2022-12-22T07:29:06.698Z,23.58
2022-12-22T07:31:37.172Z,23.57
2022-12-22T07:34:08.156Z,23.55
2022-12-22T07:36:41.221Z,23.52
2022-12-22T07:39:12.276Z,23.52
2022-12-22T07:41:59.989Z,23.49
2022-12-22T07:44:30.369Z,23.46
2022-12-22T07:47:00.820Z,23.45
2022-12-22T07:49:48.993Z,23.42
2022-12-22T07:52:19.416Z,23.42
2022-12-22T07:54:51.265Z,23.40
2022-12-22T07:57:21.906Z,23.38
2022-12-22T07:59:52.059Z,23.34
2022-12-22T08:02:22.457Z,23.32
2022-12-22T08:04:53.177Z,23.32
2022-12-22T08:07:23.690Z,23.31
2022-12-22T08:09:54.590Z,23.27
2022-12-22T08:12:25.058Z,23.27
2022-12-22T08:14:55.808Z,23.25
2022-12-22T08:17:35.215Z,23.22
2022-12-22T08:20:05.824Z,23.21
2022-12-22T08:22:36.719Z,23.19
2022-12-22T08:25:08.129Z,23.18
2022-12-22T08:27:51.754Z,23.15
2022-12-22T08:30:22.224Z,23.15
2022-12-22T08:32:53.125Z,23.12
2022-12-22T08:35:23.404Z,23.09
2022-12-22T08:37:53.500Z,23.08
2022-12-22T08:40:26.626Z,23.06
2022-12-22T08:43:00.807Z,23.05
2022-12-22T08:45:31.407Z,23.03
2022-12-22T08:48:01.696Z,23.00
2022-12-22T08:50:32.715Z,22.98
2022-12-22T08:53:29.707Z,22.97
2022-12-22T08:55:46.001Z,22.96
2022-12-22T08:58:18.271Z,22.93
2022-12-22T09:00:49.693Z,22.92
2022-12-22T09:03:21.875Z,22.90
2022-12-22T09:05:52.484Z,22.88
2022-12-22T09:08:22.869Z,22.87
2022-12-22T09:10:53.502Z,22.85
2022-12-22T09:13:25.205Z,22.83
2022-12-22T09:15:55.682Z,22.82
2022-12-22T09:18:28.752Z,22.79
2022-12-22T09:21:00.650Z,22.77
2022-12-22T09:23:33.065Z,22.75
2022-12-22T09:26:04.097Z,22.73
2022-12-22T09:28:36.487Z,22.71
2022-12-22T09:31:06.937Z,22.71
2022-12-22T09:33:40.098Z,22.68
2022-12-22T09:36:14.266Z,22.67
2022-12-22T09:38:44.478Z,22.67
2022-12-22T09:41:34.088Z,22.65
2022-12-22T09:44:29.276Z,22.63
2022-12-22T09:47:00.571Z,22.62
2022-12-22T09:49:31.375Z,22.59
2022-12-22T09:52:03.255Z,22.59
2022-12-22T09:54:33.505Z,22.56
2022-12-22T09:57:07.292Z,22.55
2022-12-22T09:59:38.021Z,22.53
2022-12-22T10:02:19.951Z,22.50
2022-12-22T10:05:07.948Z,22.49
2022-12-22T10:07:41.980Z,22.48
2022-12-22T10:10:28.608Z,22.46
2022-12-22T10:13:00.850Z,22.44
2022-12-22T10:15:40.286Z,22.44
2022-12-22T10:18:16.131Z,22.44
2022-12-22T10:20:48.620Z,22.41
2022-12-22T10:23:27.810Z,22.40
2022-12-22T10:28:40.073Z,22.24
2022-12-22T10:31:33.132Z,22.24
2022-12-22T10:34:16.214Z,22.35
2022-12-22T10:36:55.335Z,22.33
2022-12-22T10:39:28.858Z,22.33
2022-12-22T10:42:01.808Z,22.32
2022-12-22T10:44:34.006Z,22.31
2022-12-22T10:47:15.459Z,22.29
2022-12-22T10:52:16.846Z,22.27
2022-12-22T10:54:47.848Z,22.27
2022-12-22T10:57:22.489Z,22.25
2022-12-22T11:00:03.075Z,22.23
2022-12-22T11:02:39.006Z,22.23
2022-12-22T11:05:14.314Z,22.22
2022-12-22T11:11:12.294Z,22.19
2022-12-22T11:14:12.477Z,22.18
2022-12-22T11:16:53.243Z,22.17
2022-12-22T11:19:43.834Z,22.16
2022-12-22T11:22:16.708Z,22.13
2022-12-22T11:24:55.443Z,22.10
2022-12-22T11:27:45.724Z,22.08
2022-12-22T11:30:22.765Z,22.07
2022-12-22T11:33:04.466Z,22.05
2022-12-22T11:35:55.408Z,22.03
2022-12-22T11:38:31.128Z,22.01
2022-12-22T11:41:24.120Z,22.00
2022-12-22T11:44:13.858Z,21.98
2022-12-22T11:46:55.629Z,22.00
2022-12-22T11:50:25.506Z,22.02
2022-12-22T11:52:37.170Z,22.04
2022-12-22T11:55:49.630Z,22.08
2022-12-22T11:58:22.878Z,22.13
2022-12-22T12:01:32.309Z,22.21
2022-12-22T12:04:25.026Z,22.27
2022-12-22T12:07:33.446Z,22.34
2022-12-22T12:13:37.443Z,22.50
2022-12-22T12:16:26.389Z,22.57
2022-12-22T12:25:59.481Z,22.83
2022-12-22T12:39:08.476Z,23.17
2022-12-22T12:44:39.058Z,23.35
2022-12-22T12:47:36.797Z,23.42
2022-12-22T12:54:09.337Z,23.50
2022-12-22T12:57:20.314Z,23.55
2022-12-22T13:00:02.783Z,23.59
2022-12-22T13:02:42.919Z,23.66
2022-12-22T13:08:33.698Z,23.79
2022-12-22T13:14:07.690Z,23.87
2022-12-22T13:16:41.797Z,23.93
2022-12-22T13:19:19.330Z,23.98
2022-12-22T13:21:55.412Z,24.02
2022-12-22T13:24:31.113Z,24.04
2022-12-22T13:27:07.770Z,24.05
2022-12-22T13:32:31.769Z,24.18
2022-12-22T13:35:30.514Z,24.19
2022-12-22T13:37:45.385Z,24.25
2022-12-22T13:40:20.793Z,24.30
2022-12-22T13:43:05.593Z,24.38
2022-12-22T13:45:46.794Z,24.41
2022-12-22T13:48:21.897Z,24.44
2022-12-22T13:50:56.909Z,24.46
2022-12-22T13:56:18.431Z,24.56
2022-12-22T13:58:48.658Z,24.58
2022-12-22T14:01:20.081Z,24.61
2022-12-22T14:04:01.816Z,24.62
2022-12-22T14:06:41.888Z,24.65
2022-12-22T14:09:14.397Z,24.68
2022-12-22T14:11:52.190Z,24.74
2022-12-22T14:14:26.122Z,24.80
2022-12-22T14:16:58.347Z,24.85
2022-12-22T14:19:29.007Z,24.86
2022-12-22T14:22:04.763Z,24.89
2022-12-22T14:24:38.722Z,24.90
2022-12-22T14:27:09.297Z,24.91
2022-12-22T14:29:39.964Z,24.92
2022-12-22T14:32:11.176Z,24.95
2022-12-22T14:34:42.159Z,24.94
2022-12-22T14:37:13.136Z,24.96
2022-12-22T14:39:44.104Z,24.97
2022-12-22T14:42:18.400Z,24.98
2022-12-22T14:44:48.979Z,25.01
2022-12-22T14:47:20.297Z,25.01
2022-12-22T14:50:07.906Z,25.03
2022-12-22T14:52:55.243Z,25.07
2022-12-22T14:55:51.939Z,25.13
2022-12-22T14:58:31.621Z,25.15
2022-12-22T15:01:20.718Z,25.16
2022-12-22T15:04:08.400Z,25.17
2022-12-22T15:06:40.775Z,25.20
2022-12-22T15:09:17.032Z,25.24
2022-12-22T15:11:52.163Z,25.28
2022-12-22T15:14:24.519Z,25.32
2022-12-22T15:16:58.929Z,25.33
2022-12-22T15:19:30.847Z,25.33
2022-12-22T15:22:01.128Z,25.35
2022-12-22T15:24:31.400Z,25.39
2022-12-22T15:27:01.458Z,25.42
2022-12-22T15:29:31.711Z,25.45
2022-12-22T15:32:12.476Z,25.45
2022-12-22T15:34:43.155Z,25.46
2022-12-22T15:37:14.664Z,25.46
2022-12-22T15:39:45.104Z,25.46
2022-12-22T15:42:15.719Z,25.47
2022-12-22T15:44:46.364Z,25.48
2022-12-22T15:47:16.526Z,25.48
2022-12-22T15:49:47.021Z,25.49
2022-12-22T15:52:18.277Z,25.49
2022-12-22T15:54:48.414Z,25.49
2022-12-22T15:57:18.733Z,25.50
2022-12-22T15:59:49.147Z,25.50
2022-12-22T16:02:19.719Z,25.50
2022-12-22T16:04:50.034Z,25.51
2022-12-22T16:07:20.592Z,25.51
2022-12-22T16:09:50.660Z,25.52
2022-12-22T16:12:21.267Z,25.52
2022-12-22T16:14:53.890Z,25.52
2022-12-22T16:17:25.984Z,25.52
2022-12-22T16:19:56.032Z,25.52
2022-12-22T16:22:36.733Z,25.52
2022-12-22T16:25:08.445Z,25.52
2022-12-22T16:27:41.909Z,25.54
2022-12-22T16:30:24.399Z,25.53
2022-12-22T16:32:54.700Z,25.54
2022-12-22T16:35:27.567Z,25.55
2022-12-22T16:38:01.065Z,25.41
2022-12-22T16:40:31.056Z,25.41
2022-12-22T16:45:53.729Z,25.30
2022-12-22T16:48:44.348Z,25.12
2022-12-22T16:51:27.338Z,24.96
2022-12-22T16:54:05.098Z,24.82
2022-12-22T16:56:35.929Z,24.65
2022-12-22T16:59:13.355Z,24.53
2022-12-22T17:01:55.265Z,24.42
2022-12-22T17:04:27.807Z,24.30
2022-12-22T17:06:58.037Z,24.22
2022-12-22T17:09:34.203Z,24.13
2022-12-22T17:12:04.354Z,24.07
2022-12-22T17:14:39.677Z,24.00
2022-12-22T17:17:12.530Z,23.94
2022-12-22T17:19:43.403Z,23.86
2022-12-22T17:22:33.925Z,23.77
2022-12-22T17:27:56.263Z,23.67
2022-12-22T17:30:27.555Z,23.63
2022-12-22T17:32:57.958Z,23.57
2022-12-22T17:35:29.890Z,23.53
2022-12-22T17:38:00.503Z,23.48
2022-12-22T17:40:32.641Z,23.42
2022-12-22T17:43:03.021Z,23.37
2022-12-22T17:45:33.057Z,23.30
2022-12-22T17:48:03.205Z,23.26
2022-12-22T17:50:33.552Z,23.21
2022-12-22T17:53:04.252Z,23.20
2022-12-22T17:56:07.177Z,23.16
2022-12-22T17:58:06.253Z,23.14
2022-12-22T18:00:36.345Z,23.11
2022-12-22T18:03:07.132Z,23.07
2022-12-22T18:05:40.405Z,22.99
2022-12-22T18:08:13.442Z,22.98
2022-12-22T18:10:44.833Z,22.96
2022-12-22T18:13:23.575Z,22.94
2022-12-22T18:15:54.290Z,22.91
2022-12-22T18:18:27.065Z,22.89
2022-12-22T18:21:06.385Z,22.86
2022-12-22T18:23:33.819Z,22.83
2022-12-22T18:26:04.235Z,22.81
2022-12-22T18:28:34.496Z,22.76
2022-12-22T18:31:04.747Z,22.76
2022-12-22T18:33:35.025Z,22.74
2022-12-22T18:36:05.475Z,22.72
2022-12-22T18:38:37.151Z,22.70
2022-12-22T18:41:07.806Z,22.69
2022-12-22T18:43:38.408Z,22.62
2022-12-22T18:46:09.992Z,22.55
2022-12-22T18:48:40.158Z,22.53
2022-12-22T18:51:14.281Z,22.52
2022-12-22T18:53:45.145Z,22.54
2022-12-22T18:56:16.256Z,22.51
2022-12-22T18:58:47.334Z,22.46
2022-12-22T19:01:20.061Z,22.46
2022-12-22T19:03:50.599Z,22.44
2022-12-22T19:06:22.257Z,22.41
2022-12-22T19:08:52.779Z,22.39
2022-12-22T19:11:31.147Z,22.39
2022-12-22T19:14:01.630Z,22.37
2022-12-22T19:16:32.014Z,22.36
2022-12-22T19:19:02.436Z,22.35
2022-12-22T19:21:32.833Z,22.29
2022-12-22T19:24:03.196Z,22.25
2022-12-22T19:26:33.467Z,22.25
2022-12-22T19:29:03.818Z,22.27
2022-12-22T19:31:35.351Z,22.27
2022-12-22T19:34:09.518Z,22.27
2022-12-22T19:36:39.974Z,22.24
2022-12-22T19:39:10.387Z,22.20
2022-12-22T19:41:48.394Z,22.18
2022-12-22T19:44:31.787Z,22.16
2022-12-22T19:47:01.877Z,22.17
2022-12-22T19:49:32.521Z,22.20
2022-12-22T19:52:02.798Z,22.20
2022-12-22T19:54:33.827Z,22.19
2022-12-22T19:57:06.286Z,22.14
2022-12-22T19:59:41.624Z,22.13
2022-12-22T20:02:34.280Z,22.11
2022-12-22T20:05:10.052Z,22.13
2022-12-22T20:07:38.151Z,22.14
2022-12-22T20:10:11.745Z,22.11
2022-12-22T20:12:43.407Z,22.11
2022-12-22T20:15:25.196Z,22.05
2022-12-22T20:17:55.887Z,22.03
2022-12-22T20:20:38.794Z,22.03
2022-12-22T20:23:17.000Z,22.07
2022-12-22T20:25:59.485Z,22.09
2022-12-22T20:28:31.742Z,22.07
2022-12-22T20:31:03.491Z,22.06
2022-12-22T20:33:34.474Z,22.04
2022-12-22T20:36:04.765Z,22.04
2022-12-22T20:38:39.341Z,22.05
2022-12-22T20:41:10.608Z,22.07
2022-12-22T20:43:40.672Z,22.08
2022-12-22T20:46:19.490Z,22.07
2022-12-22T20:48:52.673Z,22.07
2022-12-22T20:51:22.948Z,22.08
2022-12-22T20:53:53.179Z,22.07
2022-12-22T20:56:31.085Z,22.09
2022-12-22T20:59:01.690Z,22.10
2022-12-22T21:01:31.934Z,22.11
2022-12-22T21:04:02.451Z,22.12
2022-12-22T21:06:34.517Z,22.14
2022-12-22T21:09:04.900Z,22.14
2022-12-22T21:11:37.104Z,22.12
2022-12-22T21:14:07.302Z,22.10
2022-12-22T21:16:37.566Z,22.09
2022-12-22T21:19:11.088Z,22.10
2022-12-22T21:21:41.448Z,22.11
2022-12-22T21:24:12.488Z,22.11
2022-12-22T21:26:44.683Z,22.09
2022-12-22T21:29:21.419Z,22.11
2022-12-22T21:31:51.690Z,22.10
2022-12-22T21:34:21.892Z,22.09
2022-12-22T21:36:53.522Z,22.08
2022-12-22T21:39:34.374Z,22.10
2022-12-22T21:42:08.529Z,22.08
2022-12-22T21:44:38.724Z,22.07
2022-12-22T21:47:08.961Z,22.07
2022-12-22T21:49:39.578Z,22.06
2022-12-22T21:52:10.043Z,22.05
2022-12-22T21:54:40.188Z,22.07
2022-12-22T21:57:13.533Z,22.09
2022-12-22T21:59:44.767Z,22.10
2022-12-22T22:02:20.522Z,22.09
2022-12-22T22:04:54.973Z,22.07
2022-12-22T22:07:23.208Z,22.05
2022-12-22T22:09:53.363Z,22.02
2022-12-22T22:12:37.370Z,22.03
2022-12-22T22:15:07.198Z,22.01
2022-12-22T22:17:37.921Z,22.01
2022-12-22T22:20:09.205Z,22.03
2022-12-22T22:22:40.018Z,22.00
2022-12-22T22:25:11.214Z,21.99
2022-12-22T22:27:52.835Z,21.96
2022-12-22T22:30:26.062Z,21.94
2022-12-22T22:32:56.303Z,21.95
2022-12-22T22:35:28.065Z,21.96
2022-12-22T22:38:01.093Z,21.95
2022-12-22T22:40:31.501Z,21.93
2022-12-22T22:43:01.736Z,21.91
2022-12-22T22:45:39.955Z,21.88
2022-12-22T22:48:11.517Z,21.85
2022-12-22T22:50:45.854Z,21.86
2022-12-22T22:53:20.831Z,21.87
2022-12-22T22:55:51.138Z,21.89
2022-12-22T22:58:22.131Z,21.93
2022-12-22T23:00:52.817Z,21.93
2022-12-22T23:03:24.047Z,21.91
2022-12-22T23:05:54.598Z,21.89
2022-12-22T23:08:34.863Z,21.87
2022-12-22T23:11:05.224Z,21.84
2022-12-22T23:13:35.852Z,21.86
2022-12-22T23:16:06.649Z,21.83
2022-12-22T23:18:36.921Z,21.83
2022-12-22T23:21:07.940Z,21.84
2022-12-22T23:23:38.123Z,21.86
2022-12-22T23:26:10.960Z,21.87
2022-12-22T23:28:42.925Z,21.82
2022-12-22T23:31:13.819Z,21.76
2022-12-22T23:33:44.759Z,21.72
2022-12-22T23:36:15.869Z,21.72
2022-12-22T23:38:46.921Z,21.74
2022-12-22T23:41:17.372Z,21.75
2022-12-22T23:43:47.949Z,21.78
2022-12-22T23:46:18.848Z,21.75
2022-12-22T23:48:54.602Z,21.73
2022-12-22T23:51:26.305Z,21.73
2022-12-22T23:53:57.614Z,21.74
2022-12-22T23:56:28.179Z,21.74
2022-12-22T23:58:58.498Z,21.75
